sensor_id;sensor_type;location;lat;lon;timestamp;P1;durP1;ratioP1;P2;durP2;ratioP2
50002;SDS011;35889;51.442;6.408;2022-07-04T00:00:05;0.60;;;0.60;;
50002;SDS011;35889;51.442;6.408;2022-07-04T00:02:31;0.63;;;0.63;;
50002;SDS011;35889;51.442;6.408;2022-07-04T00:04:57;0.60;;;0.60;;
50002;SDS011;35889;51.442;6.408;2022-07-04T00:07:23;0.60;;;0.60;;
50002;SDS011;35889;51.442;6.408;2022-07-04T00:09:48;0.60;;;0.60;;
50002;SDS011;35889;51.442;6.408;2022-07-04T00:12:14;0.70;;;0.70;;
50002;SDS011;35889;51.442;6.408;2022-07-04T00:14:39;0.60;;;0.60;;
50002;SDS011;35889;51.442;6.408;2022-07-04T00:17:05;0.60;;;0.60;;
50002;SDS011;35889;51.442;6.408;2022-07-04T00:19:31;0.60;;;0.60;;
50002;SDS011;35889;51.442;6.408;2022-07-04T00:21:56;0.60;;;0.60;;
50002;SDS011;35889;51.442;6.408;2022-07-04T00:24:22;0.70;;;0.70;;
50002;SDS011;35889;51.442;6.408;2022-07-04T00:26:47;0.60;;;0.60;;
50002;SDS011;35889;51.442;6.408;2022-07-04T00:29:13;0.60;;;0.60;;
50002;SDS011;35889;51.442;6.408;2022-07-04T00:31:39;0.63;;;0.63;;
50002;SDS011;35889;51.442;6.408;2022-07-04T00:34:04;0.70;;;0.70;;
50002;SDS011;35889;51.442;6.408;2022-07-04T00:36:30;0.60;;;0.60;;
50002;SDS011;35889;51.442;6.408;2022-07-04T00:38:55;0.70;;;0.70;;
50002;SDS011;35889;51.442;6.408;2022-07-04T00:41:21;0.60;;;0.60;;
50002;SDS011;35889;51.442;6.408;2022-07-04T00:43:59;0.60;;;0.60;;
50002;SDS011;35889;51.442;6.408;2022-07-04T00:46:29;0.60;;;0.60;;
50002;SDS011;35889;51.442;6.408;2022-07-04T00:48:54;0.60;;;0.60;;
50002;SDS011;35889;51.442;6.408;2022-07-04T00:51:20;0.60;;;0.60;;
50002;SDS011;35889;51.442;6.408;2022-07-04T00:53:45;0.60;;;0.60;;
50002;SDS011;35889;51.442;6.408;2022-07-04T00:56:11;0.60;;;0.60;;
50002;SDS011;35889;51.442;6.408;2022-07-04T00:58:36;0.60;;;0.60;;
50002;SDS011;35889;51.442;6.408;2022-07-04T01:01:02;0.60;;;0.60;;
50002;SDS011;35889;51.442;6.408;2022-07-04T01:03:28;0.70;;;0.70;;
50002;SDS011;35889;51.442;6.408;2022-07-04T01:05:54;0.60;;;0.60;;
50002;SDS011;35889;51.442;6.408;2022-07-04T01:08:20;0.60;;;0.60;;
50002;SDS011;35889;51.442;6.408;2022-07-04T01:10:46;0.60;;;0.60;;
50002;SDS011;35889;51.442;6.408;2022-07-04T01:13:23;0.70;;;0.70;;
50002;SDS011;35889;51.442;6.408;2022-07-04T01:15:49;0.60;;;0.60;;
50002;SDS011;35889;51.442;6.408;2022-07-04T01:18:16;0.60;;;0.60;;
50002;SDS011;35889;51.442;6.408;2022-07-04T01:20:42;0.50;;;0.50;;
50002;SDS011;35889;51.442;6.408;2022-07-04T01:23:07;0.70;;;0.70;;
50002;SDS011;35889;51.442;6.408;2022-07-04T01:25:33;0.60;;;0.60;;
50002;SDS011;35889;51.442;6.408;2022-07-04T01:27:58;0.68;;;0.68;;
50002;SDS011;35889;51.442;6.408;2022-07-04T01:30:25;0.60;;;0.60;;
50002;SDS011;35889;51.442;6.408;2022-07-04T01:32:50;0.60;;;0.60;;
50002;SDS011;35889;51.442;6.408;2022-07-04T01:35:16;0.60;;;0.60;;
50002;SDS011;35889;51.442;6.408;2022-07-04T01:37:41;0.60;;;0.60;;
50002;SDS011;35889;51.442;6.408;2022-07-04T01:40:07;0.60;;;0.60;;
50002;SDS011;35889;51.442;6.408;2022-07-04T01:42:33;0.60;;;0.60;;
50002;SDS011;35889;51.442;6.408;2022-07-04T01:44:58;0.70;;;0.70;;
50002;SDS011;35889;51.442;6.408;2022-07-04T01:47:24;0.60;;;0.60;;
50002;SDS011;35889;51.442;6.408;2022-07-04T01:49:49;0.60;;;0.60;;
50002;SDS011;35889;51.442;6.408;2022-07-04T01:52:14;0.50;;;0.50;;
50002;SDS011;35889;51.442;6.408;2022-07-04T01:54:41;0.60;;;0.60;;
50002;SDS011;35889;51.442;6.408;2022-07-04T01:57:07;0.60;;;0.60;;
50002;SDS011;35889;51.442;6.408;2022-07-04T01:59:33;0.65;;;0.65;;
50002;SDS011;35889;51.442;6.408;2022-07-04T02:02:16;0.65;;;0.65;;
50002;SDS011;35889;51.442;6.408;2022-07-04T02:04:42;0.60;;;0.60;;
50002;SDS011;35889;51.442;6.408;2022-07-04T02:07:07;0.60;;;0.60;;
50002;SDS011;35889;51.442;6.408;2022-07-04T02:09:33;0.60;;;0.60;;
50002;SDS011;35889;51.442;6.408;2022-07-04T02:11:58;0.60;;;0.60;;
50002;SDS011;35889;51.442;6.408;2022-07-04T02:14:42;0.60;;;0.60;;
50002;SDS011;35889;51.442;6.408;2022-07-04T02:17:08;0.60;;;0.60;;
50002;SDS011;35889;51.442;6.408;2022-07-04T02:19:34;0.60;;;0.60;;
50002;SDS011;35889;51.442;6.408;2022-07-04T02:22:00;0.60;;;0.60;;
50002;SDS011;35889;51.442;6.408;2022-07-04T02:24:25;0.60;;;0.60;;
50002;SDS011;35889;51.442;6.408;2022-07-04T02:26:51;0.60;;;0.60;;
50002;SDS011;35889;51.442;6.408;2022-07-04T02:29:16;0.60;;;0.60;;
50002;SDS011;35889;51.442;6.408;2022-07-04T02:31:42;0.70;;;0.70;;
50002;SDS011;35889;51.442;6.408;2022-07-04T02:34:07;0.60;;;0.60;;
50002;SDS011;35889;51.442;6.408;2022-07-04T02:36:33;0.70;;;0.70;;
50002;SDS011;35889;51.442;6.408;2022-07-04T02:38:58;0.70;;;0.70;;
50002;SDS011;35889;51.442;6.408;2022-07-04T02:41:24;0.70;;;0.70;;
50002;SDS011;35889;51.442;6.408;2022-07-04T02:43:49;0.70;;;0.70;;
50002;SDS011;35889;51.442;6.408;2022-07-04T02:46:15;0.60;;;0.60;;
50002;SDS011;35889;51.442;6.408;2022-07-04T02:48:40;0.63;;;0.63;;
50002;SDS011;35889;51.442;6.408;2022-07-04T02:51:06;0.60;;;0.60;;
50002;SDS011;35889;51.442;6.408;2022-07-04T02:53:31;0.60;;;0.60;;
50002;SDS011;35889;51.442;6.408;2022-07-04T02:55:56;0.60;;;0.60;;
50002;SDS011;35889;51.442;6.408;2022-07-04T02:58:22;0.60;;;0.60;;
50002;SDS011;35889;51.442;6.408;2022-07-04T03:00:47;0.68;;;0.68;;
50002;SDS011;35889;51.442;6.408;2022-07-04T03:03:13;0.70;;;0.70;;
50002;SDS011;35889;51.442;6.408;2022-07-04T03:05:38;0.70;;;0.70;;
50002;SDS011;35889;51.442;6.408;2022-07-04T03:08:04;0.60;;;0.60;;
50002;SDS011;35889;51.442;6.408;2022-07-04T03:10:30;0.70;;;0.70;;
50002;SDS011;35889;51.442;6.408;2022-07-04T03:12:55;0.60;;;0.60;;
50002;SDS011;35889;51.442;6.408;2022-07-04T03:15:21;0.63;;;0.63;;
50002;SDS011;35889;51.442;6.408;2022-07-04T03:17:46;0.60;;;0.60;;
50002;SDS011;35889;51.442;6.408;2022-07-04T03:20:12;0.70;;;0.70;;
50002;SDS011;35889;51.442;6.408;2022-07-04T03:22:37;0.70;;;0.70;;
50002;SDS011;35889;51.442;6.408;2022-07-04T03:25:03;0.60;;;0.60;;
50002;SDS011;35889;51.442;6.408;2022-07-04T03:27:30;0.70;;;0.70;;
50002;SDS011;35889;51.442;6.408;2022-07-04T03:29:55;0.50;;;0.50;;
50002;SDS011;35889;51.442;6.408;2022-07-04T03:32:21;0.60;;;0.60;;
50002;SDS011;35889;51.442;6.408;2022-07-04T03:34:46;0.60;;;0.60;;
50002;SDS011;35889;51.442;6.408;2022-07-04T03:37:12;0.70;;;0.70;;
50002;SDS011;35889;51.442;6.408;2022-07-04T03:39:37;0.60;;;0.60;;
50002;SDS011;35889;51.442;6.408;2022-07-04T03:42:02;0.70;;;0.70;;
50002;SDS011;35889;51.442;6.408;2022-07-04T03:44:28;0.60;;;0.60;;
50002;SDS011;35889;51.442;6.408;2022-07-04T03:46:54;0.63;;;0.63;;
50002;SDS011;35889;51.442;6.408;2022-07-04T03:49:19;0.60;;;0.60;;
50002;SDS011;35889;51.442;6.408;2022-07-04T03:51:44;0.70;;;0.70;;
50002;SDS011;35889;51.442;6.408;2022-07-04T03:54:10;0.70;;;0.70;;
50002;SDS011;35889;51.442;6.408;2022-07-04T03:56:35;0.68;;;0.68;;
50002;SDS011;35889;51.442;6.408;2022-07-04T03:59:01;0.70;;;0.70;;
50002;SDS011;35889;51.442;6.408;2022-07-04T04:01:26;0.60;;;0.60;;
50002;SDS011;35889;51.442;6.408;2022-07-04T04:03:52;0.60;;;0.60;;
50002;SDS011;35889;51.442;6.408;2022-07-04T04:06:36;0.70;;;0.70;;
50002;SDS011;35889;51.442;6.408;2022-07-04T04:09:01;0.60;;;0.60;;
50002;SDS011;35889;51.442;6.408;2022-07-04T04:11:27;0.60;;;0.60;;
50002;SDS011;35889;51.442;6.408;2022-07-04T04:13:52;0.60;;;0.60;;
50002;SDS011;35889;51.442;6.408;2022-07-04T04:16:18;0.60;;;0.60;;
50002;SDS011;35889;51.442;6.408;2022-07-04T04:18:43;0.70;;;0.70;;
50002;SDS011;35889;51.442;6.408;2022-07-04T04:21:09;0.60;;;0.60;;
50002;SDS011;35889;51.442;6.408;2022-07-04T04:23:34;0.60;;;0.60;;
50002;SDS011;35889;51.442;6.408;2022-07-04T04:26:00;0.60;;;0.60;;
50002;SDS011;35889;51.442;6.408;2022-07-04T04:28:25;0.70;;;0.70;;
50002;SDS011;35889;51.442;6.408;2022-07-04T04:30:50;0.60;;;0.60;;
50002;SDS011;35889;51.442;6.408;2022-07-04T04:33:16;0.60;;;0.60;;
50002;SDS011;35889;51.442;6.408;2022-07-04T04:35:41;0.65;;;0.65;;
50002;SDS011;35889;51.442;6.408;2022-07-04T04:38:07;0.60;;;0.60;;
50002;SDS011;35889;51.442;6.408;2022-07-04T04:40:32;0.60;;;0.60;;
50002;SDS011;35889;51.442;6.408;2022-07-04T04:42:58;0.60;;;0.60;;
50002;SDS011;35889;51.442;6.408;2022-07-04T04:45:23;0.60;;;0.60;;
50002;SDS011;35889;51.442;6.408;2022-07-04T04:47:49;0.65;;;0.65;;
50002;SDS011;35889;51.442;6.408;2022-07-04T04:50:14;0.60;;;0.60;;
50002;SDS011;35889;51.442;6.408;2022-07-04T04:52:42;0.60;;;0.60;;
50002;SDS011;35889;51.442;6.408;2022-07-04T04:55:08;0.63;;;0.63;;
50002;SDS011;35889;51.442;6.408;2022-07-04T04:57:33;0.68;;;0.68;;
50002;SDS011;35889;51.442;6.408;2022-07-04T04:59:59;0.70;;;0.70;;
50002;SDS011;35889;51.442;6.408;2022-07-04T05:02:25;0.60;;;0.60;;
50002;SDS011;35889;51.442;6.408;2022-07-04T05:04:50;0.60;;;0.60;;
50002;SDS011;35889;51.442;6.408;2022-07-04T05:07:16;0.68;;;0.68;;
50002;SDS011;35889;51.442;6.408;2022-07-04T05:09:42;0.60;;;0.60;;
50002;SDS011;35889;51.442;6.408;2022-07-04T05:12:07;0.60;;;0.60;;
50002;SDS011;35889;51.442;6.408;2022-07-04T05:14:33;0.70;;;0.70;;
50002;SDS011;35889;51.442;6.408;2022-07-04T05:16:58;0.60;;;0.60;;
50002;SDS011;35889;51.442;6.408;2022-07-04T05:19:24;0.60;;;0.60;;
50002;SDS011;35889;51.442;6.408;2022-07-04T05:21:49;0.60;;;0.60;;
50002;SDS011;35889;51.442;6.408;2022-07-04T05:24:15;0.60;;;0.60;;
50002;SDS011;35889;51.442;6.408;2022-07-04T05:26:41;0.65;;;0.65;;
50002;SDS011;35889;51.442;6.408;2022-07-04T05:29:07;0.70;;;0.70;;
50002;SDS011;35889;51.442;6.408;2022-07-04T05:31:32;0.70;;;0.70;;
50002;SDS011;35889;51.442;6.408;2022-07-04T05:33:58;0.60;;;0.60;;
50002;SDS011;35889;51.442;6.408;2022-07-04T05:36:24;0.70;;;0.70;;
50002;SDS011;35889;51.442;6.408;2022-07-04T05:38:50;0.60;;;0.60;;
50002;SDS011;35889;51.442;6.408;2022-07-04T05:41:15;0.63;;;0.63;;
50002;SDS011;35889;51.442;6.408;2022-07-04T05:43:40;0.70;;;0.70;;
50002;SDS011;35889;51.442;6.408;2022-07-04T05:46:06;0.70;;;0.70;;
50002;SDS011;35889;51.442;6.408;2022-07-04T05:48:32;0.60;;;0.60;;
50002;SDS011;35889;51.442;6.408;2022-07-04T05:50:57;0.70;;;0.70;;
50002;SDS011;35889;51.442;6.408;2022-07-04T05:53:23;0.70;;;0.70;;
50002;SDS011;35889;51.442;6.408;2022-07-04T05:55:48;0.63;;;0.63;;
50002;SDS011;35889;51.442;6.408;2022-07-04T05:58:14;0.70;;;0.70;;
50002;SDS011;35889;51.442;6.408;2022-07-04T06:00:40;0.70;;;0.70;;
50002;SDS011;35889;51.442;6.408;2022-07-04T06:03:05;0.70;;;0.70;;
50002;SDS011;35889;51.442;6.408;2022-07-04T06:05:31;0.60;;;0.60;;
50002;SDS011;35889;51.442;6.408;2022-07-04T06:07:57;0.70;;;0.70;;
50002;SDS011;35889;51.442;6.408;2022-07-04T06:10:22;0.70;;;0.70;;
50002;SDS011;35889;51.442;6.408;2022-07-04T06:12:48;0.70;;;0.70;;
50002;SDS011;35889;51.442;6.408;2022-07-04T06:15:13;0.70;;;0.70;;
50002;SDS011;35889;51.442;6.408;2022-07-04T06:17:40;0.60;;;0.60;;
50002;SDS011;35889;51.442;6.408;2022-07-04T06:20:06;0.60;;;0.60;;
50002;SDS011;35889;51.442;6.408;2022-07-04T06:22:42;0.70;;;0.70;;
50002;SDS011;35889;51.442;6.408;2022-07-04T06:25:16;0.60;;;0.60;;
50002;SDS011;35889;51.442;6.408;2022-07-04T06:27:43;0.70;;;0.70;;
50002;SDS011;35889;51.442;6.408;2022-07-04T06:30:09;0.70;;;0.70;;
50002;SDS011;35889;51.442;6.408;2022-07-04T06:32:51;0.60;;;0.60;;
50002;SDS011;35889;51.442;6.408;2022-07-04T06:35:19;0.60;;;0.60;;
50002;SDS011;35889;51.442;6.408;2022-07-04T06:38:10;0.70;;;0.70;;
50002;SDS011;35889;51.442;6.408;2022-07-04T06:40:37;0.80;;;0.80;;
50002;SDS011;35889;51.442;6.408;2022-07-04T06:43:03;0.70;;;0.70;;
50002;SDS011;35889;51.442;6.408;2022-07-04T06:45:28;0.70;;;0.70;;
50002;SDS011;35889;51.442;6.408;2022-07-04T06:47:54;0.70;;;0.70;;
50002;SDS011;35889;51.442;6.408;2022-07-04T06:50:20;0.70;;;0.70;;
50002;SDS011;35889;51.442;6.408;2022-07-04T06:52:45;0.70;;;0.70;;
50002;SDS011;35889;51.442;6.408;2022-07-04T06:55:11;0.70;;;0.70;;
50002;SDS011;35889;51.442;6.408;2022-07-04T06:57:36;0.80;;;0.80;;
50002;SDS011;35889;51.442;6.408;2022-07-04T07:00:03;0.70;;;0.70;;
50002;SDS011;35889;51.442;6.408;2022-07-04T07:02:30;0.70;;;0.70;;
50002;SDS011;35889;51.442;6.408;2022-07-04T07:04:56;0.75;;;0.75;;
50002;SDS011;35889;51.442;6.408;2022-07-04T07:07:22;0.70;;;0.70;;
50002;SDS011;35889;51.442;6.408;2022-07-04T07:09:50;0.80;;;0.80;;
50002;SDS011;35889;51.442;6.408;2022-07-04T07:12:18;0.70;;;0.70;;
50002;SDS011;35889;51.442;6.408;2022-07-04T07:14:44;0.70;;;0.70;;
50002;SDS011;35889;51.442;6.408;2022-07-04T07:17:09;0.70;;;0.70;;
50002;SDS011;35889;51.442;6.408;2022-07-04T07:19:35;0.68;;;0.68;;
50002;SDS011;35889;51.442;6.408;2022-07-04T07:22:00;0.70;;;0.70;;
50002;SDS011;35889;51.442;6.408;2022-07-04T07:24:26;0.70;;;0.70;;
50002;SDS011;35889;51.442;6.408;2022-07-04T07:26:55;0.70;;;0.70;;
50002;SDS011;35889;51.442;6.408;2022-07-04T07:29:21;0.70;;;0.70;;
50002;SDS011;35889;51.442;6.408;2022-07-04T07:31:46;0.60;;;0.60;;
50002;SDS011;35889;51.442;6.408;2022-07-04T07:34:12;0.70;;;0.70;;
50002;SDS011;35889;51.442;6.408;2022-07-04T07:36:37;0.70;;;0.70;;
50002;SDS011;35889;51.442;6.408;2022-07-04T07:39:03;0.70;;;0.70;;
50002;SDS011;35889;51.442;6.408;2022-07-04T07:41:28;0.70;;;0.70;;
50002;SDS011;35889;51.442;6.408;2022-07-04T07:43:54;0.70;;;0.70;;
50002;SDS011;35889;51.442;6.408;2022-07-04T07:46:19;0.70;;;0.70;;
50002;SDS011;35889;51.442;6.408;2022-07-04T07:48:44;0.70;;;0.70;;
50002;SDS011;35889;51.442;6.408;2022-07-04T07:51:10;0.80;;;0.80;;
50002;SDS011;35889;51.442;6.408;2022-07-04T07:53:35;0.70;;;0.70;;
50002;SDS011;35889;51.442;6.408;2022-07-04T07:56:01;0.70;;;0.70;;
50002;SDS011;35889;51.442;6.408;2022-07-04T07:58:27;0.70;;;0.70;;
50002;SDS011;35889;51.442;6.408;2022-07-04T08:00:52;0.70;;;0.70;;
50002;SDS011;35889;51.442;6.408;2022-07-04T08:03:17;0.70;;;0.70;;
50002;SDS011;35889;51.442;6.408;2022-07-04T08:06:02;0.80;;;0.80;;
50002;SDS011;35889;51.442;6.408;2022-07-04T08:08:27;0.70;;;0.70;;
50002;SDS011;35889;51.442;6.408;2022-07-04T08:10:53;0.75;;;0.75;;
50002;SDS011;35889;51.442;6.408;2022-07-04T08:13:18;0.80;;;0.80;;
50002;SDS011;35889;51.442;6.408;2022-07-04T08:15:44;0.70;;;0.70;;
50002;SDS011;35889;51.442;6.408;2022-07-04T08:18:09;0.70;;;0.70;;
50002;SDS011;35889;51.442;6.408;2022-07-04T08:20:35;0.70;;;0.70;;
50002;SDS011;35889;51.442;6.408;2022-07-04T08:23:00;0.80;;;0.80;;
50002;SDS011;35889;51.442;6.408;2022-07-04T08:25:26;0.80;;;0.80;;
50002;SDS011;35889;51.442;6.408;2022-07-04T08:27:51;0.70;;;0.70;;
50002;SDS011;35889;51.442;6.408;2022-07-04T08:30:17;0.70;;;0.70;;
50002;SDS011;35889;51.442;6.408;2022-07-04T08:32:42;0.80;;;0.80;;
50002;SDS011;35889;51.442;6.408;2022-07-04T08:35:08;0.70;;;0.70;;
50002;SDS011;35889;51.442;6.408;2022-07-04T08:37:33;0.70;;;0.70;;
50002;SDS011;35889;51.442;6.408;2022-07-04T08:39:59;0.80;;;0.80;;
50002;SDS011;35889;51.442;6.408;2022-07-04T08:42:24;0.70;;;0.70;;
50002;SDS011;35889;51.442;6.408;2022-07-04T08:44:53;0.80;;;0.80;;
50002;SDS011;35889;51.442;6.408;2022-07-04T08:47:22;0.70;;;0.70;;
50002;SDS011;35889;51.442;6.408;2022-07-04T08:49:52;0.80;;;0.80;;
50002;SDS011;35889;51.442;6.408;2022-07-04T08:52:27;0.80;;;0.80;;
50002;SDS011;35889;51.442;6.408;2022-07-04T08:54:59;0.70;;;0.70;;
50002;SDS011;35889;51.442;6.408;2022-07-04T08:57:43;0.70;;;0.70;;
50002;SDS011;35889;51.442;6.408;2022-07-04T09:00:27;0.80;;;0.80;;
50002;SDS011;35889;51.442;6.408;2022-07-04T09:02:53;0.80;;;0.80;;
50002;SDS011;35889;51.442;6.408;2022-07-04T09:05:19;0.80;;;0.80;;
50002;SDS011;35889;51.442;6.408;2022-07-04T09:07:45;0.75;;;0.75;;
50002;SDS011;35889;51.442;6.408;2022-07-04T09:10:10;0.70;;;0.70;;
50002;SDS011;35889;51.442;6.408;2022-07-04T09:12:36;0.75;;;0.75;;
50002;SDS011;35889;51.442;6.408;2022-07-04T09:15:01;0.80;;;0.80;;
50002;SDS011;35889;51.442;6.408;2022-07-04T09:17:27;0.80;;;0.80;;
50002;SDS011;35889;51.442;6.408;2022-07-04T09:22:36;0.70;;;0.70;;
50002;SDS011;35889;51.442;6.408;2022-07-04T09:25:02;0.70;;;0.70;;
50002;SDS011;35889;51.442;6.408;2022-07-04T09:29:59;0.60;;;0.60;;
50002;SDS011;35889;51.442;6.408;2022-07-04T09:32:38;0.80;;;0.80;;
50002;SDS011;35889;51.442;6.408;2022-07-04T09:35:06;0.70;;;0.70;;
50002;SDS011;35889;51.442;6.408;2022-07-04T09:37:35;0.70;;;0.70;;
50002;SDS011;35889;51.442;6.408;2022-07-04T09:40:06;0.80;;;0.80;;
50002;SDS011;35889;51.442;6.408;2022-07-04T09:42:41;0.75;;;0.75;;
50002;SDS011;35889;51.442;6.408;2022-07-04T09:45:08;0.80;;;0.80;;
50002;SDS011;35889;51.442;6.408;2022-07-04T09:47:35;0.80;;;0.80;;
50002;SDS011;35889;51.442;6.408;2022-07-04T09:52:30;0.80;;;0.80;;
50002;SDS011;35889;51.442;6.408;2022-07-04T09:54:56;0.70;;;0.70;;
50002;SDS011;35889;51.442;6.408;2022-07-04T09:57:23;0.80;;;0.80;;
50002;SDS011;35889;51.442;6.408;2022-07-04T09:59:49;0.80;;;0.80;;
50002;SDS011;35889;51.442;6.408;2022-07-04T10:02:14;0.70;;;0.70;;
50002;SDS011;35889;51.442;6.408;2022-07-04T10:04:50;0.65;;;0.65;;
50002;SDS011;35889;51.442;6.408;2022-07-04T10:07:32;0.80;;;0.80;;
50002;SDS011;35889;51.442;6.408;2022-07-04T10:10:30;0.80;;;0.80;;
50002;SDS011;35889;51.442;6.408;2022-07-04T10:13:06;0.88;;;0.88;;
50002;SDS011;35889;51.442;6.408;2022-07-04T10:15:33;0.80;;;0.80;;
50002;SDS011;35889;51.442;6.408;2022-07-04T10:18:02;0.70;;;0.70;;
50002;SDS011;35889;51.442;6.408;2022-07-04T10:20:27;0.80;;;0.80;;
50002;SDS011;35889;51.442;6.408;2022-07-04T10:22:53;0.70;;;0.70;;
50002;SDS011;35889;51.442;6.408;2022-07-04T10:25:19;0.60;;;0.60;;
50002;SDS011;35889;51.442;6.408;2022-07-04T10:27:44;0.70;;;0.70;;
50002;SDS011;35889;51.442;6.408;2022-07-04T10:30:14;0.80;;;0.80;;
50002;SDS011;35889;51.442;6.408;2022-07-04T10:32:40;0.70;;;0.70;;
50002;SDS011;35889;51.442;6.408;2022-07-04T10:35:08;0.77;;;0.77;;
50002;SDS011;35889;51.442;6.408;2022-07-04T10:40:38;0.80;;;0.80;;
50002;SDS011;35889;51.442;6.408;2022-07-04T10:48:28;0.70;;;0.70;;
50002;SDS011;35889;51.442;6.408;2022-07-04T10:51:00;0.70;;;0.70;;
50002;SDS011;35889;51.442;6.408;2022-07-04T10:53:31;0.80;;;0.80;;
50002;SDS011;35889;51.442;6.408;2022-07-04T10:58:44;0.80;;;0.80;;
50002;SDS011;35889;51.442;6.408;2022-07-04T11:01:13;0.80;;;0.80;;
50002;SDS011;35889;51.442;6.408;2022-07-04T11:09:41;0.80;;;0.80;;
50002;SDS011;35889;51.442;6.408;2022-07-04T11:11:54;0.80;;;0.80;;
50002;SDS011;35889;51.442;6.408;2022-07-04T11:17:21;0.90;;;0.90;;
50002;SDS011;35889;51.442;6.408;2022-07-04T11:20:01;0.70;;;0.70;;
50002;SDS011;35889;51.442;6.408;2022-07-04T11:22:28;0.80;;;0.80;;
50002;SDS011;35889;51.442;6.408;2022-07-04T11:24:54;0.80;;;0.80;;
50002;SDS011;35889;51.442;6.408;2022-07-04T11:27:22;0.80;;;0.80;;
50002;SDS011;35889;51.442;6.408;2022-07-04T11:29:51;0.70;;;0.70;;
50002;SDS011;35889;51.442;6.408;2022-07-04T11:32:18;0.70;;;0.70;;
50002;SDS011;35889;51.442;6.408;2022-07-04T11:34:44;0.80;;;0.80;;
50002;SDS011;35889;51.442;6.408;2022-07-04T11:37:11;0.80;;;0.80;;
50002;SDS011;35889;51.442;6.408;2022-07-04T11:39:36;0.80;;;0.80;;
50002;SDS011;35889;51.442;6.408;2022-07-04T11:42:02;0.80;;;0.80;;
50002;SDS011;35889;51.442;6.408;2022-07-04T11:44:46;0.80;;;0.80;;
50002;SDS011;35889;51.442;6.408;2022-07-04T11:47:40;0.80;;;0.80;;
50002;SDS011;35889;51.442;6.408;2022-07-04T11:50:10;0.80;;;0.80;;
50002;SDS011;35889;51.442;6.408;2022-07-04T11:55:02;0.80;;;0.80;;
50002;SDS011;35889;51.442;6.408;2022-07-04T11:57:32;0.80;;;0.80;;
50002;SDS011;35889;51.442;6.408;2022-07-04T12:02:25;0.70;;;0.70;;
50002;SDS011;35889;51.442;6.408;2022-07-04T12:04:52;0.60;;;0.60;;
50002;SDS011;35889;51.442;6.408;2022-07-04T12:07:18;0.70;;;0.70;;
50002;SDS011;35889;51.442;6.408;2022-07-04T12:09:46;0.80;;;0.80;;
50002;SDS011;35889;51.442;6.408;2022-07-04T12:12:12;0.80;;;0.80;;
50002;SDS011;35889;51.442;6.408;2022-07-04T12:14:39;0.80;;;0.80;;
50002;SDS011;35889;51.442;6.408;2022-07-04T12:17:12;0.80;;;0.80;;
50002;SDS011;35889;51.442;6.408;2022-07-04T12:19:52;0.80;;;0.80;;
50002;SDS011;35889;51.442;6.408;2022-07-04T12:22:28;0.73;;;0.73;;
50002;SDS011;35889;51.442;6.408;2022-07-04T12:24:56;0.80;;;0.80;;
50002;SDS011;35889;51.442;6.408;2022-07-04T12:27:22;0.80;;;0.80;;
50002;SDS011;35889;51.442;6.408;2022-07-04T12:29:49;0.80;;;0.80;;
50002;SDS011;35889;51.442;6.408;2022-07-04T12:32:16;0.80;;;0.80;;
50002;SDS011;35889;51.442;6.408;2022-07-04T12:34:42;0.80;;;0.80;;
50002;SDS011;35889;51.442;6.408;2022-07-04T12:37:08;0.80;;;0.80;;
50002;SDS011;35889;51.442;6.408;2022-07-04T12:39:35;0.70;;;0.70;;
50002;SDS011;35889;51.442;6.408;2022-07-04T12:42:08;0.70;;;0.70;;
50002;SDS011;35889;51.442;6.408;2022-07-04T12:44:35;0.80;;;0.80;;
50002;SDS011;35889;51.442;6.408;2022-07-04T12:47:04;0.80;;;0.80;;
50002;SDS011;35889;51.442;6.408;2022-07-04T12:49:31;0.70;;;0.70;;
50002;SDS011;35889;51.442;6.408;2022-07-04T12:52:08;0.73;;;0.73;;
50002;SDS011;35889;51.442;6.408;2022-07-04T12:54:40;0.80;;;0.80;;
50002;SDS011;35889;51.442;6.408;2022-07-04T12:57:10;0.77;;;0.77;;
50002;SDS011;35889;51.442;6.408;2022-07-04T12:59:37;0.70;;;0.70;;
50002;SDS011;35889;51.442;6.408;2022-07-04T13:02:04;0.80;;;0.80;;
50002;SDS011;35889;51.442;6.408;2022-07-04T13:04:30;0.70;;;0.70;;
50002;SDS011;35889;51.442;6.408;2022-07-04T13:06:58;0.80;;;0.80;;
50002;SDS011;35889;51.442;6.408;2022-07-04T13:09:24;0.80;;;0.80;;
50002;SDS011;35889;51.442;6.408;2022-07-04T13:11:50;0.70;;;0.70;;
50002;SDS011;35889;51.442;6.408;2022-07-04T13:14:34;0.70;;;0.70;;
50002;SDS011;35889;51.442;6.408;2022-07-04T13:16:59;0.70;;;0.70;;
50002;SDS011;35889;51.442;6.408;2022-07-04T13:19:25;0.70;;;0.70;;
50002;SDS011;35889;51.442;6.408;2022-07-04T13:21:50;0.80;;;0.80;;
50002;SDS011;35889;51.442;6.408;2022-07-04T13:24:16;0.70;;;0.70;;
50002;SDS011;35889;51.442;6.408;2022-07-04T13:26:42;0.70;;;0.70;;
50002;SDS011;35889;51.442;6.408;2022-07-04T13:29:07;0.80;;;0.80;;
50002;SDS011;35889;51.442;6.408;2022-07-04T13:31:33;0.70;;;0.70;;
50002;SDS011;35889;51.442;6.408;2022-07-04T13:33:59;0.70;;;0.70;;
50002;SDS011;35889;51.442;6.408;2022-07-04T13:36:24;0.80;;;0.80;;
50002;SDS011;35889;51.442;6.408;2022-07-04T13:38:50;0.70;;;0.70;;
50002;SDS011;35889;51.442;6.408;2022-07-04T13:41:15;0.80;;;0.80;;
50002;SDS011;35889;51.442;6.408;2022-07-04T13:43:41;0.90;;;0.90;;
50002;SDS011;35889;51.442;6.408;2022-07-04T13:46:06;0.80;;;0.80;;
50002;SDS011;35889;51.442;6.408;2022-07-04T13:48:32;0.82;;;0.82;;
50002;SDS011;35889;51.442;6.408;2022-07-04T13:50:57;0.70;;;0.70;;
50002;SDS011;35889;51.442;6.408;2022-07-04T13:53:23;0.70;;;0.70;;
50002;SDS011;35889;51.442;6.408;2022-07-04T13:55:48;0.70;;;0.70;;
50002;SDS011;35889;51.442;6.408;2022-07-04T13:58:14;0.70;;;0.70;;
50002;SDS011;35889;51.442;6.408;2022-07-04T14:00:39;0.80;;;0.80;;
50002;SDS011;35889;51.442;6.408;2022-07-04T14:03:09;0.70;;;0.70;;
50002;SDS011;35889;51.442;6.408;2022-07-04T14:05:35;1.10;;;1.10;;
50002;SDS011;35889;51.442;6.408;2022-07-04T14:08:01;0.90;;;0.90;;
50002;SDS011;35889;51.442;6.408;2022-07-04T14:10:26;1.10;;;1.10;;
50002;SDS011;35889;51.442;6.408;2022-07-04T14:12:52;0.70;;;0.70;;
50002;SDS011;35889;51.442;6.408;2022-07-04T14:15:17;0.70;;;0.70;;
50002;SDS011;35889;51.442;6.408;2022-07-04T14:17:43;0.70;;;0.70;;
50002;SDS011;35889;51.442;6.408;2022-07-04T14:20:09;0.70;;;0.70;;
50002;SDS011;35889;51.442;6.408;2022-07-04T14:22:36;0.70;;;0.70;;
50002;SDS011;35889;51.442;6.408;2022-07-04T14:25:03;0.80;;;0.80;;
50002;SDS011;35889;51.442;6.408;2022-07-04T14:27:29;1.10;;;1.10;;
50002;SDS011;35889;51.442;6.408;2022-07-04T14:29:54;1.10;;;1.10;;
50002;SDS011;35889;51.442;6.408;2022-07-04T14:32:19;0.70;;;0.70;;
50002;SDS011;35889;51.442;6.408;2022-07-04T14:34:45;1.10;;;1.10;;
50002;SDS011;35889;51.442;6.408;2022-07-04T14:37:11;1.10;;;1.10;;
50002;SDS011;35889;51.442;6.408;2022-07-04T14:39:36;0.80;;;0.80;;
50002;SDS011;35889;51.442;6.408;2022-07-04T14:42:02;1.10;;;1.10;;
50002;SDS011;35889;51.442;6.408;2022-07-04T14:44:27;1.20;;;1.20;;
50002;SDS011;35889;51.442;6.408;2022-07-04T14:46:53;1.10;;;1.10;;
50002;SDS011;35889;51.442;6.408;2022-07-04T14:49:19;1.17;;;1.17;;
50002;SDS011;35889;51.442;6.408;2022-07-04T14:51:44;1.10;;;1.10;;
50002;SDS011;35889;51.442;6.408;2022-07-04T14:54:10;0.70;;;0.70;;
50002;SDS011;35889;51.442;6.408;2022-07-04T14:56:35;0.70;;;0.70;;
50002;SDS011;35889;51.442;6.408;2022-07-04T14:59:02;0.90;;;0.90;;
50002;SDS011;35889;51.442;6.408;2022-07-04T15:01:30;0.90;;;0.90;;
50002;SDS011;35889;51.442;6.408;2022-07-04T15:03:55;1.10;;;1.10;;
50002;SDS011;35889;51.442;6.408;2022-07-04T15:06:21;1.20;;;1.20;;
50002;SDS011;35889;51.442;6.408;2022-07-04T15:08:46;0.60;;;0.60;;
50002;SDS011;35889;51.442;6.408;2022-07-04T15:11:12;1.10;;;1.10;;
50002;SDS011;35889;51.442;6.408;2022-07-04T15:13:38;1.10;;;1.10;;
50002;SDS011;35889;51.442;6.408;2022-07-04T15:16:04;1.10;;;1.10;;
50002;SDS011;35889;51.442;6.408;2022-07-04T15:18:29;1.10;;;1.10;;